createdAt,value
2019-05-03T00:01:08.153Z,48488.54
2019-05-03T00:03:35.821Z,48504.30
2019-05-03T00:06:05.547Z,48474.76
2019-05-03T00:08:33.409Z,48462.95
2019-05-03T00:11:02.314Z,48523.01
2019-05-03T00:13:30.044Z,48497.41
2019-05-03T00:16:03.655Z,48499.37
2019-05-03T00:18:32.780Z,48469.84
2019-05-03T00:21:02.139Z,48459.00
2019-05-03T00:23:29.991Z,48464.91
2019-05-03T00:25:57.659Z,48447.19
2019-05-03T00:28:25.320Z,48522.02
2019-05-03T00:30:53.011Z,48488.54
2019-05-03T00:33:22.511Z,48469.84
2019-05-03T00:36:02.489Z,48469.84
2019-05-03T00:38:32.417Z,48490.51
2019-05-03T00:41:01.738Z,48465.90
2019-05-03T00:43:29.137Z,48489.53
2019-05-03T00:45:56.896Z,48474.76
2019-05-03T00:48:24.617Z,48423.56
2019-05-03T00:50:52.287Z,48467.87
2019-05-03T00:53:19.935Z,48462.95
2019-05-03T00:55:47.610Z,48490.51
2019-05-03T00:58:15.524Z,48468.85
2019-05-03T01:00:43.479Z,48495.44
2019-05-03T01:03:12.574Z,48491.50
2019-05-03T01:05:42.265Z,48486.57
2019-05-03T01:08:10.099Z,48475.74
2019-05-03T01:10:37.759Z,48436.36
2019-05-03T01:13:05.635Z,48502.33
2019-05-03T01:15:40.051Z,48461.96
2019-05-03T01:18:09.532Z,48507.25
2019-05-03T01:20:37.351Z,48490.51
2019-05-03T01:23:05.136Z,48487.56
2019-05-03T01:25:35.419Z,48470.82
2019-05-03T01:28:02.178Z,48465.90
2019-05-03T01:30:31.945Z,48480.67
2019-05-03T01:32:59.591Z,48504.30
2019-05-03T01:35:27.253Z,48475.74
2019-05-03T01:37:54.915Z,48494.45
2019-05-03T01:40:22.576Z,48474.76
2019-05-03T01:42:51.846Z,48488.54
2019-05-03T01:45:19.713Z,48447.19
2019-05-03T01:48:02.056Z,48478.70
2019-05-03T01:50:38.332Z,48440.30
2019-05-03T01:53:06.943Z,48497.41
2019-05-03T01:55:54.488Z,48448.18
2019-05-03T01:58:22.236Z,48506.27
2019-05-03T02:00:52.405Z,48487.56
2019-05-03T02:03:27.138Z,48464.91
2019-05-03T02:05:55.035Z,48460.97
2019-05-03T02:08:23.145Z,48503.31
2019-05-03T02:10:51.740Z,48470.82
2019-05-03T02:13:19.554Z,48447.19
2019-05-03T02:15:47.211Z,48483.62
2019-05-03T02:18:15.250Z,48484.61
2019-05-03T02:20:43.037Z,48446.20
2019-05-03T02:23:11.940Z,48457.04
2019-05-03T02:25:41.714Z,48494.45
2019-05-03T02:28:09.107Z,48469.84
2019-05-03T02:30:37.122Z,48479.68
2019-05-03T02:33:04.945Z,48473.77
2019-05-03T02:35:33.345Z,48476.73
2019-05-03T02:38:03.626Z,48483.62
2019-05-03T02:40:33.579Z,48499.37
2019-05-03T02:43:10.018Z,48475.74
2019-05-03T02:45:46.981Z,48474.76
2019-05-03T02:48:25.473Z,48474.76
2019-05-03T02:50:52.528Z,48438.33
2019-05-03T02:53:20.274Z,48466.88
2019-05-03T02:55:47.928Z,48467.87
2019-05-03T02:58:15.959Z,48468.85
2019-05-03T03:00:45.436Z,48468.85
2019-05-03T03:03:16.004Z,48487.56
2019-05-03T03:05:42.672Z,48492.48
2019-05-03T03:08:10.320Z,48466.88
2019-05-03T03:10:37.977Z,48482.64
2019-05-03T03:13:06.026Z,48480.67
2019-05-03T03:15:36.319Z,48491.50
2019-05-03T03:18:06.141Z,48501.34
2019-05-03T03:20:35.050Z,48486.57
2019-05-03T03:23:02.188Z,48484.61
2019-05-03T03:25:31.620Z,48515.13
2019-05-03T03:27:59.462Z,48483.62
2019-05-03T03:30:32.299Z,48482.64
2019-05-03T03:33:00.019Z,48511.19
2019-05-03T03:35:29.847Z,48454.08
2019-05-03T03:37:57.079Z,48479.68
2019-05-03T03:40:25.430Z,48459.00
2019-05-03T03:42:55.521Z,48482.64
2019-05-03T03:45:25.160Z,48480.67
2019-05-03T03:47:52.077Z,48522.02
2019-05-03T03:50:19.732Z,48496.42
2019-05-03T03:52:47.421Z,48486.57
2019-05-03T03:55:16.141Z,48528.91
2019-05-03T03:57:46.716Z,48491.50
2019-05-03T04:00:16.263Z,48459.00
2019-05-03T04:02:45.691Z,48462.95
2019-05-03T04:05:12.759Z,48498.39
2019-05-03T04:07:40.685Z,48512.18
2019-05-03T04:10:08.368Z,48467.87
2019-05-03T04:12:36.026Z,48478.70
2019-05-03T04:15:16.024Z,48497.41
2019-05-03T04:17:48.342Z,48487.56
2019-05-03T04:20:18.725Z,48486.57
2019-05-03T04:22:46.481Z,48503.31
2019-05-03T04:25:15.369Z,48490.51
2019-05-03T04:27:45.351Z,48471.80
2019-05-03T04:30:12.759Z,48508.24
2019-05-03T04:32:40.567Z,48520.05
2019-05-03T04:35:08.214Z,48488.54
2019-05-03T04:37:36.174Z,48494.45
2019-05-03T04:40:06.155Z,48480.67
2019-05-03T04:42:35.754Z,48485.59
2019-05-03T04:45:05.642Z,48509.22
2019-05-03T04:47:32.119Z,48515.13
2019-05-03T04:49:59.786Z,48496.42
2019-05-03T04:52:27.453Z,48508.24
2019-05-03T04:54:57.202Z,48462.95
2019-05-03T04:57:38.812Z,48509.22
2019-05-03T04:59:56.023Z,48489.53
2019-05-03T05:02:26.420Z,48498.39
2019-05-03T05:04:55.412Z,48533.84
2019-05-03T05:07:22.632Z,48490.51
2019-05-03T05:09:50.525Z,48467.87
2019-05-03T05:12:18.182Z,48527.93
2019-05-03T05:14:46.057Z,48516.11
2019-05-03T05:17:16.376Z,48517.10
2019-05-03T05:19:49.856Z,48518.08
2019-05-03T05:22:19.458Z,48500.36
2019-05-03T05:24:47.108Z,48485.59
2019-05-03T05:27:27.702Z,48474.76
2019-05-03T05:29:55.498Z,48531.87
2019-05-03T05:32:24.777Z,48511.19
2019-05-03T05:34:52.673Z,48500.36
2019-05-03T05:37:20.340Z,48477.71
2019-05-03T05:39:47.984Z,48478.70
2019-05-03T05:42:15.672Z,48493.47
2019-05-03T05:44:45.254Z,48496.42
2019-05-03T05:47:18.047Z,48482.64
2019-05-03T05:49:51.720Z,48502.33
2019-05-03T05:52:19.377Z,48484.61
2019-05-03T05:54:51.765Z,48473.77
2019-05-03T05:57:25.615Z,48457.04
2019-05-03T05:59:59.102Z,48478.70
2019-05-03T06:02:26.756Z,48456.05
2019-05-03T06:04:54.486Z,48499.37
2019-05-03T06:07:31.696Z,48482.64
2019-05-03T06:10:07.420Z,48499.37
2019-05-03T06:12:41.163Z,48473.77
2019-05-03T06:15:15.560Z,48489.53
2019-05-03T06:17:52.051Z,48534.82
2019-05-03T06:20:28.271Z,48472.79
2019-05-03T06:23:01.510Z,48506.27
2019-05-03T06:25:37.116Z,48483.62
2019-05-03T06:28:17.789Z,48516.11
2019-05-03T06:30:45.448Z,48523.99
2019-05-03T06:33:14.401Z,48522.02
2019-05-03T06:35:42.259Z,48498.39
2019-05-03T06:38:10.175Z,48470.82
2019-05-03T06:40:37.851Z,48470.82
2019-05-03T06:43:09.837Z,48477.71
2019-05-03T06:45:35.455Z,48466.88
2019-05-03T06:48:05.421Z,48468.85
2019-05-03T06:50:34.662Z,48465.90
2019-05-03T06:53:05.911Z,48453.10
2019-05-03T06:55:31.582Z,48461.96
2019-05-03T06:57:59.384Z,48468.85
2019-05-03T07:00:47.004Z,48446.20
2019-05-03T07:03:25.306Z,48476.73
2019-05-03T07:05:58.382Z,48457.04
2019-05-03T07:08:31.340Z,48459.00
2019-05-03T07:10:59.908Z,48431.43
2019-05-03T07:13:27.728Z,48453.10
2019-05-03T07:15:56.007Z,48467.87
2019-05-03T07:18:24.756Z,48492.48
2019-05-03T07:20:56.989Z,48417.65
2019-05-03T07:23:24.907Z,48484.61
2019-05-03T07:25:52.649Z,48457.04
2019-05-03T07:28:20.329Z,48487.56
2019-05-03T07:30:48.112Z,48457.04
2019-05-03T07:33:22.614Z,48466.88
2019-05-03T07:35:50.266Z,48438.33
2019-05-03T07:38:17.920Z,48435.37
2019-05-03T07:40:45.617Z,48454.08
2019-05-03T07:43:14.834Z,48447.19
2019-05-03T07:45:44.570Z,48443.25
2019-05-03T07:48:12.399Z,48470.82
2019-05-03T07:50:40.108Z,48447.19
2019-05-03T07:53:08.032Z,48478.70
2019-05-03T07:55:40.826Z,48449.16
2019-05-03T07:58:08.844Z,48446.20
2019-05-03T08:00:36.696Z,48439.31
2019-05-03T08:03:05.044Z,48397.96
2019-05-03T08:05:34.866Z,48461.96
2019-05-03T08:08:04.698Z,48440.30
2019-05-03T08:10:31.896Z,48399.93
2019-05-03T08:12:59.636Z,48461.96
2019-05-03T08:15:27.295Z,48449.16
2019-05-03T08:17:55.430Z,48437.34
2019-05-03T08:20:24.842Z,48441.28
2019-05-03T08:22:54.611Z,48437.34
2019-05-03T08:25:22.160Z,48416.67
2019-05-03T08:27:49.816Z,48415.68
2019-05-03T08:30:22.204Z,48424.54
2019-05-03T08:32:59.591Z,48396.97
2019-05-03T08:35:32.121Z,48409.77
2019-05-03T08:38:01.043Z,48437.34
2019-05-03T08:40:34.866Z,48418.64
2019-05-03T08:43:02.042Z,48391.07
2019-05-03T08:45:29.723Z,48416.67
2019-05-03T08:47:57.546Z,48391.07
2019-05-03T08:50:25.796Z,48397.96
2019-05-03T08:52:55.688Z,48377.28
2019-05-03T08:55:25.005Z,48346.76
2019-05-03T08:57:54.950Z,48399.93
2019-05-03T09:00:24.911Z,48419.62
2019-05-03T09:02:54.761Z,48379.25
2019-05-03T09:05:22.187Z,48393.04
2019-05-03T09:07:50.872Z,48413.71
2019-05-03T09:10:26.705Z,48399.93
2019-05-03T09:12:59.583Z,48399.93
2019-05-03T09:15:27.239Z,48385.16
2019-05-03T09:17:55.347Z,48355.62
2019-05-03T09:20:24.990Z,48379.25
2019-05-03T09:22:52.473Z,48399.93
2019-05-03T09:25:20.142Z,48388.11
2019-05-03T09:27:47.787Z,48365.46
2019-05-03T09:30:15.875Z,48367.43
2019-05-03T09:32:44.827Z,48367.43
2019-05-03T09:35:27.213Z,48355.62
2019-05-03T09:37:42.060Z,48395.99
2019-05-03T09:40:09.757Z,48401.90
2019-05-03T09:42:37.415Z,48390.08
2019-05-03T09:45:05.221Z,48409.77
2019-05-03T09:47:32.928Z,48396.97
2019-05-03T09:50:02.192Z,48388.11
2019-05-03T09:52:30.319Z,48372.36
2019-05-03T09:54:59.834Z,48342.82
2019-05-03T09:57:27.482Z,48378.27
2019-05-03T09:59:59.772Z,48385.16
2019-05-03T10:02:24.731Z,48313.28
2019-05-03T10:04:52.650Z,48341.84
2019-05-03T10:07:20.348Z,48371.37
2019-05-03T10:09:48.216Z,48299.50
2019-05-03T10:12:19.818Z,48389.10
2019-05-03T10:14:47.476Z,48375.31
2019-05-03T10:17:27.606Z,48390.08
2019-05-03T10:19:55.371Z,48391.07
2019-05-03T10:22:25.151Z,48359.56
2019-05-03T10:24:52.390Z,48354.64
2019-05-03T10:27:20.121Z,48376.30
2019-05-03T10:29:47.856Z,48344.79
2019-05-03T10:32:25.270Z,48313.28
2019-05-03T10:34:56.407Z,48353.65
2019-05-03T10:37:30.912Z,48348.73
2019-05-03T10:39:58.625Z,48348.73
2019-05-03T10:42:26.290Z,48331.99
2019-05-03T10:44:55.547Z,48297.53
2019-05-03T10:47:25.327Z,48303.44
2019-05-03T10:49:52.666Z,48361.53
2019-05-03T10:52:25.773Z,48360.54
2019-05-03T10:54:55.727Z,48386.14
2019-05-03T10:57:24.840Z,48389.10
2019-05-03T10:59:52.868Z,48413.71
2019-05-03T11:02:37.605Z,48375.31
2019-05-03T11:05:05.420Z,48423.56
2019-05-03T11:07:34.591Z,48335.93
2019-05-03T11:10:02.436Z,48364.48
2019-05-03T11:12:30.148Z,48397.96
2019-05-03T11:14:57.811Z,48416.67
2019-05-03T11:17:25.784Z,48403.87
2019-05-03T11:19:54.715Z,48395.00
2019-05-03T11:22:22.527Z,48425.53
2019-05-03T11:24:50.175Z,48414.70
2019-05-03T11:27:24.702Z,48391.07
2019-05-03T11:29:52.180Z,48378.27
2019-05-03T11:32:29.274Z,48367.43
2019-05-03T11:35:04.432Z,48377.28
2019-05-03T11:37:45.262Z,48363.50
2019-05-03T11:40:12.685Z,48369.41
2019-05-03T11:42:40.410Z,48355.62
2019-05-03T11:45:08.063Z,48365.46
2019-05-03T11:47:36.080Z,48368.42
2019-05-03T11:50:03.815Z,48308.36
2019-05-03T11:52:32.154Z,48324.11
2019-05-03T11:54:59.875Z,48330.02
2019-05-03T11:57:28.058Z,48292.61
2019-05-03T11:59:55.758Z,48297.53
2019-05-03T12:02:44.624Z,48323.13
2019-05-03T12:05:18.732Z,48296.54
2019-05-03T12:07:46.627Z,48324.11
2019-05-03T12:10:29.784Z,48297.53
2019-05-03T12:12:45.481Z,48315.25
2019-05-03T12:15:14.981Z,48304.42
2019-05-03T12:17:53.841Z,48277.84
2019-05-03T12:20:17.121Z,48302.45
2019-05-03T12:22:43.728Z,48264.05
2019-05-03T12:25:13.201Z,48257.16
2019-05-03T12:27:41.745Z,48256.18
2019-05-03T12:30:09.410Z,48255.19
2019-05-03T12:32:37.065Z,48256.18
2019-05-03T12:35:06.095Z,48332.97
2019-05-03T12:37:35.361Z,48305.41
2019-05-03T12:40:05.396Z,48323.13
2019-05-03T12:42:35.223Z,48307.37
2019-05-03T12:45:02.164Z,48234.52
2019-05-03T12:47:29.910Z,48236.48
2019-05-03T12:49:57.587Z,48220.73
2019-05-03T12:52:26.779Z,48346.76
2019-05-03T12:54:55.182Z,48319.19
2019-05-03T12:57:24.817Z,48319.19
2019-05-03T13:00:05.503Z,48228.61
2019-05-03T13:02:44.182Z,48317.22
2019-05-03T13:05:11.667Z,48338.88
2019-05-03T13:07:45.556Z,48331.00
2019-05-03T13:10:13.308Z,48238.45
2019-05-03T13:12:50.616Z,48317.22
2019-05-03T13:15:10.827Z,48323.13
2019-05-03T13:17:38.525Z,48344.79
2019-05-03T13:20:06.194Z,48354.64
2019-05-03T13:22:35.064Z,48341.84
2019-05-03T13:25:03.170Z,48319.19
2019-05-03T13:27:30.900Z,48337.90
2019-05-03T13:29:58.548Z,48324.11
2019-05-03T13:32:26.216Z,48350.70
2019-05-03T13:34:55.331Z,48362.51
2019-05-03T13:37:25.356Z,48384.17
2019-05-03T13:39:52.744Z,48355.62
2019-05-03T13:42:20.403Z,48302.45
2019-05-03T13:44:48.073Z,48339.87
2019-05-03T13:47:15.803Z,48319.19
2019-05-03T13:49:44.726Z,48371.37
2019-05-03T13:52:14.446Z,48354.64
2019-05-03T13:54:41.972Z,48360.54
2019-05-03T13:57:09.742Z,48307.37
2019-05-03T13:59:37.625Z,48302.45
2019-05-03T14:02:14.994Z,48281.78
2019-05-03T14:04:48.674Z,48290.64
2019-05-03T14:07:04.693Z,48318.20
2019-05-03T14:09:34.592Z,48281.78
2019-05-03T14:12:01.894Z,48255.19
2019-05-03T14:14:32.411Z,48356.61
2019-05-03T14:17:00.151Z,48331.00
2019-05-03T14:19:34.743Z,48363.50
2019-05-03T14:22:05.276Z,48389.10
2019-05-03T14:24:35.066Z,48335.93
2019-05-03T14:27:02.747Z,48335.93
2019-05-03T14:29:30.476Z,48330.02
2019-05-03T14:31:58.150Z,48352.67
2019-05-03T14:34:25.961Z,48331.00
2019-05-03T14:37:55.066Z,48314.27
2019-05-03T14:40:24.945Z,48382.20
2019-05-03T14:42:52.404Z,48332.97
2019-05-03T14:45:20.065Z,48331.99
2019-05-03T14:47:47.720Z,48304.42
2019-05-03T14:50:15.463Z,48313.28
2019-05-03T14:52:45.313Z,48353.65
2019-05-03T14:55:19.595Z,48346.76
2019-05-03T14:57:55.285Z,48340.85
2019-05-03T15:00:30.306Z,48358.57
2019-05-03T15:03:01.600Z,48354.64
2019-05-03T15:05:29.258Z,48370.39
2019-05-03T15:07:56.984Z,48329.04
2019-05-03T15:10:24.728Z,48275.87
2019-05-03T18:05:28.671Z,48346.76
2019-05-03T18:08:15.496Z,48422.57
2019-05-03T18:10:47.097Z,48423.56
2019-05-03T18:13:14.821Z,48397.96
2019-05-03T18:15:42.553Z,48432.42
2019-05-03T18:18:10.219Z,48428.48
2019-05-03T18:20:37.887Z,48418.64
2019-05-03T18:23:05.543Z,48425.53
2019-05-03T18:25:35.324Z,48415.68
2019-05-03T18:28:02.735Z,48411.74
2019-05-03T18:30:30.420Z,48444.23
2019-05-03T18:32:58.084Z,48431.43
2019-05-03T18:35:25.783Z,48449.16
2019-05-03T18:37:59.415Z,48428.48
2019-05-03T18:40:27.832Z,48438.33
2019-05-03T18:43:00.424Z,48446.20
2019-05-03T18:45:45.341Z,48408.79
2019-05-03T18:48:14.379Z,48429.46
2019-05-03T18:50:42.259Z,48455.07
2019-05-03T18:53:09.916Z,48412.73
2019-05-03T18:55:37.595Z,48453.10
2019-05-03T18:58:05.252Z,48459.99
2019-05-03T19:00:35.144Z,48449.16
2019-05-03T19:03:03.164Z,48431.43
2019-05-03T19:05:32.471Z,48421.59
2019-05-03T19:08:07.989Z,48438.33
2019-05-03T19:10:42.323Z,48446.20
2019-05-03T19:13:15.549Z,48429.46
2019-05-03T19:15:43.212Z,48421.59
2019-05-03T19:18:16.921Z,48439.31
2019-05-03T19:20:45.542Z,48450.14
2019-05-03T19:23:15.320Z,48437.34
2019-05-03T19:25:46.826Z,48458.02
2019-05-03T19:28:12.263Z,48457.04
2019-05-03T19:30:41.706Z,48437.34
2019-05-03T19:33:09.372Z,48459.00
2019-05-03T19:35:37.104Z,48459.00
2019-05-03T19:38:05.008Z,48432.42
2019-05-03T19:40:32.802Z,48423.56
2019-05-03T19:43:02.746Z,48444.23
2019-05-03T19:45:30.060Z,48435.37
2019-05-03T19:47:57.718Z,48474.76
2019-05-03T19:50:27.260Z,48451.13
2019-05-03T19:53:01.130Z,48400.91
2019-05-03T19:55:28.780Z,48428.48
2019-05-03T19:57:56.630Z,48459.00
2019-05-03T20:00:26.415Z,48475.74
2019-05-03T20:02:58.907Z,48452.11
2019-05-03T20:05:35.363Z,48481.65
2019-05-03T20:08:08.743Z,48459.99
2019-05-03T20:10:36.400Z,48442.27
2019-05-03T20:13:04.672Z,48466.88
2019-05-03T20:15:32.603Z,48447.19
2019-05-03T20:18:00.485Z,48459.00
2019-05-03T20:20:28.478Z,48475.74
2019-05-03T20:22:58.936Z,48460.97
2019-05-03T20:25:25.688Z,48473.77
2019-05-03T20:27:53.344Z,48462.95
2019-05-03T20:30:21.038Z,48464.91
2019-05-03T20:32:48.747Z,48463.93
2019-05-03T20:35:19.188Z,48459.00
2019-05-03T20:37:45.824Z,48474.76
2019-05-03T20:40:15.257Z,48460.97
2019-05-03T20:42:55.743Z,48479.68
2019-05-03T20:45:28.066Z,48421.59
2019-05-03T20:47:57.711Z,48455.07
2019-05-03T20:50:25.398Z,48463.93
2019-05-03T20:52:54.838Z,48462.95
2019-05-03T20:55:22.424Z,48470.82
2019-05-03T20:57:50.092Z,48478.70
2019-05-03T21:00:20.056Z,48485.59
2019-05-03T21:02:53.359Z,48462.95
2019-05-03T21:05:26.642Z,48437.34
2019-05-03T21:07:46.670Z,48441.28
2019-05-03T21:10:15.602Z,48457.04
2019-05-03T21:12:43.508Z,48477.71
2019-05-03T21:15:16.860Z,48437.34
2019-05-03T21:17:51.791Z,48477.71
2019-05-03T21:20:25.284Z,48457.04
2019-05-03T21:22:54.776Z,48455.07
2019-05-03T21:25:28.444Z,48470.82
2019-05-03T21:27:56.128Z,48457.04
2019-05-03T21:30:24.685Z,48429.46
2019-05-03T21:32:52.521Z,48462.95
2019-05-03T21:35:20.653Z,48471.80
2019-05-03T21:37:48.384Z,48461.96
2019-05-03T21:40:16.063Z,48467.87
2019-05-03T21:42:45.206Z,48484.61
2019-05-03T21:45:15.111Z,48476.73
2019-05-03T21:47:48.848Z,48462.95
2019-05-03T21:50:17.999Z,48463.93
2019-05-03T21:52:45.857Z,48437.34
2019-05-03T21:55:14.477Z,48463.93
2019-05-03T21:57:42.241Z,48445.22
2019-05-03T22:00:10.080Z,48494.45
2019-05-03T22:02:37.740Z,48477.71
2019-05-03T22:05:05.409Z,48465.90
2019-05-03T22:07:34.917Z,48465.90
2019-05-03T22:10:04.887Z,48489.53
2019-05-03T22:12:32.637Z,48510.21
2019-05-03T22:15:09.644Z,48506.27
2019-05-03T22:17:44.633Z,48473.77
2019-05-03T22:20:21.420Z,48497.41
2019-05-03T22:22:56.247Z,48467.87
2019-05-03T22:25:27.241Z,48482.64
2019-05-03T22:27:54.891Z,48459.00
2019-05-03T22:30:24.358Z,48463.93
2019-05-03T22:32:52.116Z,48488.54
2019-05-03T22:35:19.963Z,48462.95
2019-05-03T22:37:47.931Z,48474.76
2019-05-03T22:40:15.564Z,48508.24
2019-05-03T22:42:44.847Z,48498.39
2019-05-03T22:45:12.584Z,48474.76
2019-05-03T22:47:40.231Z,48450.14
2019-05-03T22:50:07.926Z,48479.68
2019-05-03T22:52:35.575Z,48484.61
2019-05-03T22:55:04.741Z,48484.61
2019-05-03T22:57:32.494Z,48485.59
2019-05-03T23:00:00.175Z,48476.73
2019-05-03T23:02:27.883Z,48490.51
2019-05-03T23:04:55.783Z,48486.57
2019-05-03T23:07:24.961Z,48484.61
2019-05-03T23:09:52.835Z,48475.74
2019-05-03T23:12:20.528Z,48460.97
2019-05-03T23:14:48.226Z,48484.61
2019-05-03T23:17:15.880Z,48490.51
2019-05-03T23:19:45.292Z,48469.84
2019-05-03T23:22:30.942Z,48480.67
2019-05-03T23:24:58.764Z,48495.44
2019-05-03T23:27:26.505Z,48502.33
2019-05-03T23:29:54.497Z,48498.39
2019-05-03T23:32:24.321Z,48486.57
2019-05-03T23:34:51.783Z,48476.73
2019-05-03T23:37:19.555Z,48464.91
2019-05-03T23:39:47.849Z,48463.93
2019-05-03T23:42:15.612Z,48474.76
2019-05-03T23:44:45.455Z,48472.79
2019-05-03T23:47:22.340Z,48474.76
2019-05-03T23:49:49.996Z,48492.48
2019-05-03T23:52:23.054Z,48467.87
2019-05-03T23:54:50.679Z,48456.05
2019-05-03T23:57:18.331Z,48486.57
2019-05-03T23:59:46.073Z,48465.90
